sensor_id;sensor_type;location;lat;lon;timestamp;P1;durP1;ratioP1;P2;durP2;ratioP2
9214;SDS011;4642;51.364;6.788;2023-11-21T00:00:54;11.30;;;4.80;;
9214;SDS011;4642;51.364;6.788;2023-11-21T00:03:20;9.00;;;5.07;;
9214;SDS011;4642;51.364;6.788;2023-11-21T00:05:48;9.90;;;5.10;;
9214;SDS011;4642;51.364;6.788;2023-11-21T00:08:13;14.83;;;5.30;;
9214;SDS011;4642;51.364;6.788;2023-11-21T00:10:39;15.10;;;6.07;;
9214;SDS011;4642;51.364;6.788;2023-11-21T00:13:05;11.97;;;5.33;;
9214;SDS011;4642;51.364;6.788;2023-11-21T00:15:30;14.13;;;5.83;;
9214;SDS011;4642;51.364;6.788;2023-11-21T00:17:56;10.67;;;5.60;;
9214;SDS011;4642;51.364;6.788;2023-11-21T00:20:21;14.10;;;6.00;;
9214;SDS011;4642;51.364;6.788;2023-11-21T00:22:47;11.70;;;5.43;;
9214;SDS011;4642;51.364;6.788;2023-11-21T00:25:13;10.03;;;5.70;;
9214;SDS011;4642;51.364;6.788;2023-11-21T00:27:40;16.33;;;6.20;;
9214;SDS011;4642;51.364;6.788;2023-11-21T00:30:06;19.10;;;7.10;;
9214;SDS011;4642;51.364;6.788;2023-11-21T00:32:33;18.13;;;6.23;;
9214;SDS011;4642;51.364;6.788;2023-11-21T00:35:00;11.37;;;6.00;;
9214;SDS011;4642;51.364;6.788;2023-11-21T00:37:26;11.13;;;5.90;;
9214;SDS011;4642;51.364;6.788;2023-11-21T00:39:51;14.37;;;6.07;;
9214;SDS011;4642;51.364;6.788;2023-11-21T00:42:17;13.43;;;6.23;;
9214;SDS011;4642;51.364;6.788;2023-11-21T00:44:42;11.43;;;5.70;;
9214;SDS011;4642;51.364;6.788;2023-11-21T00:47:08;9.60;;;5.40;;
9214;SDS011;4642;51.364;6.788;2023-11-21T00:49:34;15.33;;;5.83;;
9214;SDS011;4642;51.364;6.788;2023-11-21T00:51:59;15.13;;;6.17;;
9214;SDS011;4642;51.364;6.788;2023-11-21T00:54:26;11.73;;;6.00;;
9214;SDS011;4642;51.364;6.788;2023-11-21T00:56:52;10.17;;;5.00;;
9214;SDS011;4642;51.364;6.788;2023-11-21T00:59:18;12.40;;;4.83;;
9214;SDS011;4642;51.364;6.788;2023-11-21T01:01:43;11.13;;;5.17;;
9214;SDS011;4642;51.364;6.788;2023-11-21T01:04:09;11.30;;;4.80;;
9214;SDS011;4642;51.364;6.788;2023-11-21T01:06:35;13.13;;;5.30;;
9214;SDS011;4642;51.364;6.788;2023-11-21T01:09:00;12.03;;;4.90;;
9214;SDS011;4642;51.364;6.788;2023-11-21T01:11:26;14.80;;;4.97;;
9214;SDS011;4642;51.364;6.788;2023-11-21T01:13:52;15.93;;;5.30;;
9214;SDS011;4642;51.364;6.788;2023-11-21T01:16:18;10.80;;;4.70;;
9214;SDS011;4642;51.364;6.788;2023-11-21T01:18:43;10.87;;;4.57;;
9214;SDS011;4642;51.364;6.788;2023-11-21T01:21:09;14.53;;;5.57;;
9214;SDS011;4642;51.364;6.788;2023-11-21T01:23:35;14.20;;;5.50;;
9214;SDS011;4642;51.364;6.788;2023-11-21T01:26:00;8.40;;;5.03;;
9214;SDS011;4642;51.364;6.788;2023-11-21T01:28:26;12.03;;;5.60;;
9214;SDS011;4642;51.364;6.788;2023-11-21T01:30:51;14.50;;;6.33;;
9214;SDS011;4642;51.364;6.788;2023-11-21T01:33:21;6.67;;;5.33;;
9214;SDS011;4642;51.364;6.788;2023-11-21T01:35:47;13.00;;;5.93;;
9214;SDS011;4642;51.364;6.788;2023-11-21T01:38:13;10.60;;;5.47;;
9214;SDS011;4642;51.364;6.788;2023-11-21T01:40:40;12.40;;;5.93;;
9214;SDS011;4642;51.364;6.788;2023-11-21T01:43:05;10.87;;;6.27;;
9214;SDS011;4642;51.364;6.788;2023-11-21T01:45:31;7.83;;;5.43;;
9214;SDS011;4642;51.364;6.788;2023-11-21T01:47:58;16.57;;;5.47;;
9214;SDS011;4642;51.364;6.788;2023-11-21T01:50:25;12.80;;;6.40;;
9214;SDS011;4642;51.364;6.788;2023-11-21T01:52:51;10.10;;;5.93;;
9214;SDS011;4642;51.364;6.788;2023-11-21T01:55:17;10.63;;;6.00;;
9214;SDS011;4642;51.364;6.788;2023-11-21T01:57:43;10.50;;;5.87;;
9214;SDS011;4642;51.364;6.788;2023-11-21T02:00:11;16.40;;;6.23;;
9214;SDS011;4642;51.364;6.788;2023-11-21T02:02:44;9.83;;;6.20;;
9214;SDS011;4642;51.364;6.788;2023-11-21T02:05:11;13.30;;;6.83;;
9214;SDS011;4642;51.364;6.788;2023-11-21T02:07:41;14.93;;;6.03;;
9214;SDS011;4642;51.364;6.788;2023-11-21T02:10:07;12.67;;;6.80;;
9214;SDS011;4642;51.364;6.788;2023-11-21T02:12:34;13.50;;;6.93;;
9214;SDS011;4642;51.364;6.788;2023-11-21T02:15:01;11.23;;;5.90;;
9214;SDS011;4642;51.364;6.788;2023-11-21T02:17:30;11.70;;;6.17;;
9214;SDS011;4642;51.364;6.788;2023-11-21T02:19:57;14.33;;;7.13;;
9214;SDS011;4642;51.364;6.788;2023-11-21T02:22:24;13.57;;;6.10;;
9214;SDS011;4642;51.364;6.788;2023-11-21T02:24:53;15.43;;;6.23;;
9214;SDS011;4642;51.364;6.788;2023-11-21T02:27:19;13.50;;;5.17;;
9214;SDS011;4642;51.364;6.788;2023-11-21T02:29:46;10.60;;;6.07;;
9214;SDS011;4642;51.364;6.788;2023-11-21T02:32:12;12.07;;;6.17;;
9214;SDS011;4642;51.364;6.788;2023-11-21T02:34:38;10.33;;;5.23;;
9214;SDS011;4642;51.364;6.788;2023-11-21T02:37:04;12.40;;;5.83;;
9214;SDS011;4642;51.364;6.788;2023-11-21T02:39:30;17.50;;;6.60;;
9214;SDS011;4642;51.364;6.788;2023-11-21T02:41:56;17.23;;;6.60;;
9214;SDS011;4642;51.364;6.788;2023-11-21T02:44:22;10.23;;;5.30;;
9214;SDS011;4642;51.364;6.788;2023-11-21T02:46:47;17.00;;;6.80;;
9214;SDS011;4642;51.364;6.788;2023-11-21T02:49:13;16.57;;;5.83;;
9214;SDS011;4642;51.364;6.788;2023-11-21T02:51:39;10.63;;;5.13;;
9214;SDS011;4642;51.364;6.788;2023-11-21T02:54:05;14.00;;;5.73;;
9214;SDS011;4642;51.364;6.788;2023-11-21T02:56:33;18.43;;;7.00;;
9214;SDS011;4642;51.364;6.788;2023-11-21T02:58:59;17.77;;;5.57;;
9214;SDS011;4642;51.364;6.788;2023-11-21T03:01:25;9.80;;;5.53;;
9214;SDS011;4642;51.364;6.788;2023-11-21T03:03:52;11.20;;;6.00;;
9214;SDS011;4642;51.364;6.788;2023-11-21T03:06:19;11.57;;;5.53;;
9214;SDS011;4642;51.364;6.788;2023-11-21T03:08:44;14.23;;;6.03;;
9214;SDS011;4642;51.364;6.788;2023-11-21T03:11:10;16.00;;;5.83;;
9214;SDS011;4642;51.364;6.788;2023-11-21T03:13:36;10.37;;;5.57;;
9214;SDS011;4642;51.364;6.788;2023-11-21T03:16:02;11.83;;;5.13;;
9214;SDS011;4642;51.364;6.788;2023-11-21T03:18:27;12.67;;;5.43;;
9214;SDS011;4642;51.364;6.788;2023-11-21T03:20:54;13.67;;;4.93;;
9214;SDS011;4642;51.364;6.788;2023-11-21T03:23:19;15.33;;;5.70;;
9214;SDS011;4642;51.364;6.788;2023-11-21T03:25:45;17.00;;;6.30;;
9214;SDS011;4642;51.364;6.788;2023-11-21T03:28:11;12.23;;;5.63;;
9214;SDS011;4642;51.364;6.788;2023-11-21T03:30:36;9.47;;;5.60;;
9214;SDS011;4642;51.364;6.788;2023-11-21T03:33:02;12.27;;;5.70;;
9214;SDS011;4642;51.364;6.788;2023-11-21T03:35:27;19.43;;;6.33;;
9214;SDS011;4642;51.364;6.788;2023-11-21T03:37:53;11.77;;;5.40;;
9214;SDS011;4642;51.364;6.788;2023-11-21T03:40:19;16.63;;;5.40;;
9214;SDS011;4642;51.364;6.788;2023-11-21T03:42:46;15.93;;;6.10;;
9214;SDS011;4642;51.364;6.788;2023-11-21T03:45:12;14.83;;;6.20;;
9214;SDS011;4642;51.364;6.788;2023-11-21T03:47:38;19.03;;;5.93;;
9214;SDS011;4642;51.364;6.788;2023-11-21T03:50:04;10.47;;;5.63;;
9214;SDS011;4642;51.364;6.788;2023-11-21T03:52:30;16.20;;;6.00;;
9214;SDS011;4642;51.364;6.788;2023-11-21T03:54:55;16.97;;;6.40;;
9214;SDS011;4642;51.364;6.788;2023-11-21T03:57:21;11.97;;;5.63;;
9214;SDS011;4642;51.364;6.788;2023-11-21T03:59:47;11.73;;;5.90;;
9214;SDS011;4642;51.364;6.788;2023-11-21T04:02:12;16.73;;;6.07;;
9214;SDS011;4642;51.364;6.788;2023-11-21T04:04:38;10.97;;;5.43;;
9214;SDS011;4642;51.364;6.788;2023-11-21T04:07:04;15.80;;;6.07;;
9214;SDS011;4642;51.364;6.788;2023-11-21T04:09:30;15.80;;;5.50;;
9214;SDS011;4642;51.364;6.788;2023-11-21T04:11:55;16.57;;;5.50;;
9214;SDS011;4642;51.364;6.788;2023-11-21T04:14:21;14.17;;;5.57;;
9214;SDS011;4642;51.364;6.788;2023-11-21T04:16:47;15.97;;;6.07;;
9214;SDS011;4642;51.364;6.788;2023-11-21T04:19:13;10.77;;;5.90;;
9214;SDS011;4642;51.364;6.788;2023-11-21T04:21:42;14.27;;;6.47;;
9214;SDS011;4642;51.364;6.788;2023-11-21T04:24:07;15.40;;;6.20;;
9214;SDS011;4642;51.364;6.788;2023-11-21T04:26:33;15.27;;;6.03;;
9214;SDS011;4642;51.364;6.788;2023-11-21T04:28:58;16.10;;;6.13;;
9214;SDS011;4642;51.364;6.788;2023-11-21T04:31:24;15.47;;;6.17;;
9214;SDS011;4642;51.364;6.788;2023-11-21T04:33:49;15.00;;;6.13;;
9214;SDS011;4642;51.364;6.788;2023-11-21T04:36:15;15.20;;;5.97;;
9214;SDS011;4642;51.364;6.788;2023-11-21T04:38:41;13.17;;;5.73;;
9214;SDS011;4642;51.364;6.788;2023-11-21T04:41:06;23.63;;;5.87;;
9214;SDS011;4642;51.364;6.788;2023-11-21T04:43:32;13.07;;;5.03;;
9214;SDS011;4642;51.364;6.788;2023-11-21T04:45:58;17.93;;;5.87;;
9214;SDS011;4642;51.364;6.788;2023-11-21T04:48:23;19.63;;;6.00;;
9214;SDS011;4642;51.364;6.788;2023-11-21T04:50:50;13.17;;;6.30;;
9214;SDS011;4642;51.364;6.788;2023-11-21T04:53:16;22.87;;;7.97;;
9214;SDS011;4642;51.364;6.788;2023-11-21T04:55:42;14.97;;;6.07;;
9214;SDS011;4642;51.364;6.788;2023-11-21T04:58:07;21.33;;;7.10;;
9214;SDS011;4642;51.364;6.788;2023-11-21T05:00:33;11.93;;;6.30;;
9214;SDS011;4642;51.364;6.788;2023-11-21T05:02:59;17.20;;;6.77;;
9214;SDS011;4642;51.364;6.788;2023-11-21T05:05:26;13.37;;;6.80;;
9214;SDS011;4642;51.364;6.788;2023-11-21T05:07:52;12.17;;;6.63;;
9214;SDS011;4642;51.364;6.788;2023-11-21T05:10:18;15.23;;;6.80;;
9214;SDS011;4642;51.364;6.788;2023-11-21T05:12:44;26.27;;;7.13;;
9214;SDS011;4642;51.364;6.788;2023-11-21T05:15:11;9.10;;;5.60;;
9214;SDS011;4642;51.364;6.788;2023-11-21T05:17:39;14.20;;;7.20;;
9214;SDS011;4642;51.364;6.788;2023-11-21T05:20:12;17.30;;;6.77;;
9214;SDS011;4642;51.364;6.788;2023-11-21T05:22:39;19.87;;;6.33;;
9214;SDS011;4642;51.364;6.788;2023-11-21T05:25:07;21.10;;;7.40;;
9214;SDS011;4642;51.364;6.788;2023-11-21T05:27:33;13.33;;;6.40;;
9214;SDS011;4642;51.364;6.788;2023-11-21T05:30:01;17.53;;;7.73;;
9214;SDS011;4642;51.364;6.788;2023-11-21T05:32:27;17.90;;;6.87;;
9214;SDS011;4642;51.364;6.788;2023-11-21T05:34:53;17.43;;;7.87;;
9214;SDS011;4642;51.364;6.788;2023-11-21T05:37:18;19.30;;;8.10;;
9214;SDS011;4642;51.364;6.788;2023-11-21T05:39:44;14.50;;;7.33;;
9214;SDS011;4642;51.364;6.788;2023-11-21T05:42:10;16.97;;;7.47;;
9214;SDS011;4642;51.364;6.788;2023-11-21T05:44:36;11.37;;;7.27;;
9214;SDS011;4642;51.364;6.788;2023-11-21T05:47:02;15.87;;;7.50;;
9214;SDS011;4642;51.364;6.788;2023-11-21T05:49:28;15.50;;;7.13;;
9214;SDS011;4642;51.364;6.788;2023-11-21T05:51:54;13.40;;;7.60;;
9214;SDS011;4642;51.364;6.788;2023-11-21T05:54:20;13.80;;;7.63;;
9214;SDS011;4642;51.364;6.788;2023-11-21T05:56:47;18.20;;;8.07;;
9214;SDS011;4642;51.364;6.788;2023-11-21T05:59:12;17.87;;;8.50;;
9214;SDS011;4642;51.364;6.788;2023-11-21T06:01:38;16.13;;;8.17;;
9214;SDS011;4642;51.364;6.788;2023-11-21T06:04:04;18.20;;;7.93;;
9214;SDS011;4642;51.364;6.788;2023-11-21T06:06:30;15.37;;;7.43;;
9214;SDS011;4642;51.364;6.788;2023-11-21T06:08:56;20.40;;;8.53;;
9214;SDS011;4642;51.364;6.788;2023-11-21T06:11:22;20.03;;;7.33;;
9214;SDS011;4642;51.364;6.788;2023-11-21T06:13:47;16.47;;;8.43;;
9214;SDS011;4642;51.364;6.788;2023-11-21T06:16:14;21.67;;;8.07;;
9214;SDS011;4642;51.364;6.788;2023-11-21T06:18:42;13.30;;;7.87;;
9214;SDS011;4642;51.364;6.788;2023-11-21T06:21:11;21.30;;;8.17;;
9214;SDS011;4642;51.364;6.788;2023-11-21T06:23:38;14.90;;;8.00;;
9214;SDS011;4642;51.364;6.788;2023-11-21T06:26:04;19.33;;;8.37;;
9214;SDS011;4642;51.364;6.788;2023-11-21T06:28:31;18.70;;;8.73;;
9214;SDS011;4642;51.364;6.788;2023-11-21T06:30:57;21.63;;;8.83;;
9214;SDS011;4642;51.364;6.788;2023-11-21T06:33:23;16.43;;;8.70;;
9214;SDS011;4642;51.364;6.788;2023-11-21T06:35:48;17.60;;;9.33;;
9214;SDS011;4642;51.364;6.788;2023-11-21T06:38:14;17.53;;;7.80;;
9214;SDS011;4642;51.364;6.788;2023-11-21T06:40:40;17.93;;;8.63;;
9214;SDS011;4642;51.364;6.788;2023-11-21T06:43:06;19.13;;;9.73;;
9214;SDS011;4642;51.364;6.788;2023-11-21T06:45:32;25.13;;;9.93;;
9214;SDS011;4642;51.364;6.788;2023-11-21T06:47:59;17.53;;;9.20;;
9214;SDS011;4642;51.364;6.788;2023-11-21T06:50:24;23.47;;;9.57;;
9214;SDS011;4642;51.364;6.788;2023-11-21T06:52:50;24.33;;;10.97;;
9214;SDS011;4642;51.364;6.788;2023-11-21T06:55:16;24.17;;;11.40;;
9214;SDS011;4642;51.364;6.788;2023-11-21T06:57:41;56.43;;;22.23;;
9214;SDS011;4642;51.364;6.788;2023-11-21T07:00:08;58.03;;;21.10;;
9214;SDS011;4642;51.364;6.788;2023-11-21T07:02:34;36.87;;;14.90;;
9214;SDS011;4642;51.364;6.788;2023-11-21T07:05:00;32.27;;;13.77;;
9214;SDS011;4642;51.364;6.788;2023-11-21T07:07:27;22.63;;;12.67;;
9214;SDS011;4642;51.364;6.788;2023-11-21T07:09:53;35.97;;;16.67;;
9214;SDS011;4642;51.364;6.788;2023-11-21T07:12:19;65.13;;;24.20;;
9214;SDS011;4642;51.364;6.788;2023-11-21T07:14:44;42.37;;;17.53;;
9214;SDS011;4642;51.364;6.788;2023-11-21T07:17:13;32.00;;;14.80;;
9214;SDS011;4642;51.364;6.788;2023-11-21T07:19:39;26.70;;;14.20;;
9214;SDS011;4642;51.364;6.788;2023-11-21T07:22:04;27.67;;;12.80;;
9214;SDS011;4642;51.364;6.788;2023-11-21T07:24:31;34.47;;;12.77;;
9214;SDS011;4642;51.364;6.788;2023-11-21T07:26:57;29.27;;;11.47;;
9214;SDS011;4642;51.364;6.788;2023-11-21T07:29:24;23.57;;;10.20;;
9214;SDS011;4642;51.364;6.788;2023-11-21T07:31:54;18.97;;;10.37;;
9214;SDS011;4642;51.364;6.788;2023-11-21T07:34:20;17.77;;;9.43;;
9214;SDS011;4642;51.364;6.788;2023-11-21T07:36:46;20.50;;;9.67;;
9214;SDS011;4642;51.364;6.788;2023-11-21T07:39:12;25.73;;;9.90;;
9214;SDS011;4642;51.364;6.788;2023-11-21T07:41:40;28.13;;;10.40;;
9214;SDS011;4642;51.364;6.788;2023-11-21T07:44:10;27.67;;;11.13;;
9214;SDS011;4642;51.364;6.788;2023-11-21T07:46:35;27.37;;;10.63;;
9214;SDS011;4642;51.364;6.788;2023-11-21T07:49:01;33.77;;;11.27;;
9214;SDS011;4642;51.364;6.788;2023-11-21T07:51:26;29.73;;;12.33;;
9214;SDS011;4642;51.364;6.788;2023-11-21T07:53:52;75.60;;;27.67;;
9214;SDS011;4642;51.364;6.788;2023-11-21T07:56:17;102.00;;;32.13;;
9214;SDS011;4642;51.364;6.788;2023-11-21T07:58:43;119.37;;;37.30;;
9214;SDS011;4642;51.364;6.788;2023-11-21T08:01:09;94.70;;;35.33;;
9214;SDS011;4642;51.364;6.788;2023-11-21T08:03:35;109.83;;;38.30;;
9214;SDS011;4642;51.364;6.788;2023-11-21T08:06:01;112.50;;;39.27;;
9214;SDS011;4642;51.364;6.788;2023-11-21T08:08:28;105.57;;;37.87;;
9214;SDS011;4642;51.364;6.788;2023-11-21T08:10:54;102.53;;;37.70;;
9214;SDS011;4642;51.364;6.788;2023-11-21T08:13:23;127.73;;;40.10;;
9214;SDS011;4642;51.364;6.788;2023-11-21T08:15:49;123.90;;;39.33;;
9214;SDS011;4642;51.364;6.788;2023-11-21T08:18:14;122.70;;;41.57;;
9214;SDS011;4642;51.364;6.788;2023-11-21T08:20:41;109.27;;;38.07;;
9214;SDS011;4642;51.364;6.788;2023-11-21T08:23:07;104.67;;;39.17;;
9214;SDS011;4642;51.364;6.788;2023-11-21T08:25:32;115.23;;;37.73;;
9214;SDS011;4642;51.364;6.788;2023-11-21T08:27:59;113.93;;;38.70;;
9214;SDS011;4642;51.364;6.788;2023-11-21T08:30:25;123.70;;;40.23;;
9214;SDS011;4642;51.364;6.788;2023-11-21T08:32:54;110.40;;;38.80;;
9214;SDS011;4642;51.364;6.788;2023-11-21T08:35:23;100.87;;;37.67;;
9214;SDS011;4642;51.364;6.788;2023-11-21T08:37:50;114.93;;;40.77;;
9214;SDS011;4642;51.364;6.788;2023-11-21T08:40:17;111.10;;;41.03;;
9214;SDS011;4642;51.364;6.788;2023-11-21T08:42:44;106.23;;;38.43;;
9214;SDS011;4642;51.364;6.788;2023-11-21T08:45:10;111.87;;;40.47;;
9214;SDS011;4642;51.364;6.788;2023-11-21T08:47:37;111.47;;;40.27;;
9214;SDS011;4642;51.364;6.788;2023-11-21T08:50:04;124.30;;;42.20;;
9214;SDS011;4642;51.364;6.788;2023-11-21T08:52:32;117.77;;;42.57;;
9214;SDS011;4642;51.364;6.788;2023-11-21T08:54:58;128.80;;;41.57;;
9214;SDS011;4642;51.364;6.788;2023-11-21T08:57:27;109.03;;;39.17;;
9214;SDS011;4642;51.364;6.788;2023-11-21T08:59:53;117.47;;;39.43;;
9214;SDS011;4642;51.364;6.788;2023-11-21T09:02:23;120.73;;;40.20;;
9214;SDS011;4642;51.364;6.788;2023-11-21T09:04:51;131.20;;;42.90;;
9214;SDS011;4642;51.364;6.788;2023-11-21T09:07:17;123.87;;;42.60;;
9214;SDS011;4642;51.364;6.788;2023-11-21T09:09:45;127.17;;;41.57;;
9214;SDS011;4642;51.364;6.788;2023-11-21T09:12:14;119.57;;;41.60;;
9214;SDS011;4642;51.364;6.788;2023-11-21T09:14:40;117.07;;;40.17;;
9214;SDS011;4642;51.364;6.788;2023-11-21T09:17:05;128.90;;;41.97;;
9214;SDS011;4642;51.364;6.788;2023-11-21T09:19:36;121.53;;;40.60;;
9214;SDS011;4642;51.364;6.788;2023-11-21T09:22:02;115.27;;;40.43;;
9214;SDS011;4642;51.364;6.788;2023-11-21T09:24:30;119.60;;;41.27;;
9214;SDS011;4642;51.364;6.788;2023-11-21T09:26:58;118.70;;;40.20;;
9214;SDS011;4642;51.364;6.788;2023-11-21T09:29:25;126.83;;;41.87;;
9214;SDS011;4642;51.364;6.788;2023-11-21T09:31:51;119.90;;;43.17;;
9214;SDS011;4642;51.364;6.788;2023-11-21T09:34:17;120.73;;;42.13;;
9214;SDS011;4642;51.364;6.788;2023-11-21T09:36:45;105.60;;;40.57;;
9214;SDS011;4642;51.364;6.788;2023-11-21T09:39:12;128.47;;;42.93;;
9214;SDS011;4642;51.364;6.788;2023-11-21T09:41:49;118.77;;;42.23;;
9214;SDS011;4642;51.364;6.788;2023-11-21T09:44:17;111.43;;;41.37;;
9214;SDS011;4642;51.364;6.788;2023-11-21T09:46:47;110.30;;;38.63;;
9214;SDS011;4642;51.364;6.788;2023-11-21T09:49:17;111.50;;;39.50;;
9214;SDS011;4642;51.364;6.788;2023-11-21T09:51:47;111.57;;;39.37;;
9214;SDS011;4642;51.364;6.788;2023-11-21T09:54:14;118.17;;;40.57;;
9214;SDS011;4642;51.364;6.788;2023-11-21T09:56:42;102.30;;;40.33;;
9214;SDS011;4642;51.364;6.788;2023-11-21T09:59:10;101.83;;;38.67;;
9214;SDS011;4642;51.364;6.788;2023-11-21T10:01:40;91.57;;;36.23;;
9214;SDS011;4642;51.364;6.788;2023-11-21T10:04:07;75.73;;;31.07;;
9214;SDS011;4642;51.364;6.788;2023-11-21T10:06:37;86.63;;;34.77;;
9214;SDS011;4642;51.364;6.788;2023-11-21T10:09:04;87.43;;;34.10;;
9214;SDS011;4642;51.364;6.788;2023-11-21T10:11:36;61.47;;;28.13;;
9214;SDS011;4642;51.364;6.788;2023-11-21T10:14:06;74.00;;;28.73;;
9214;SDS011;4642;51.364;6.788;2023-11-21T10:16:35;61.47;;;25.57;;
9214;SDS011;4642;51.364;6.788;2023-11-21T10:19:04;51.37;;;24.27;;
9214;SDS011;4642;51.364;6.788;2023-11-21T10:21:32;52.47;;;26.10;;
9214;SDS011;4642;51.364;6.788;2023-11-21T10:23:58;93.30;;;34.73;;
9214;SDS011;4642;51.364;6.788;2023-11-21T10:26:24;88.43;;;34.97;;
9214;SDS011;4642;51.364;6.788;2023-11-21T10:28:56;97.37;;;35.93;;
9214;SDS011;4642;51.364;6.788;2023-11-21T10:31:28;88.87;;;34.10;;
9214;SDS011;4642;51.364;6.788;2023-11-21T10:34:11;81.10;;;33.40;;
9214;SDS011;4642;51.364;6.788;2023-11-21T10:36:37;64.47;;;29.40;;
9214;SDS011;4642;51.364;6.788;2023-11-21T10:39:02;55.37;;;27.03;;
9214;SDS011;4642;51.364;6.788;2023-11-21T10:41:28;71.63;;;29.20;;
9214;SDS011;4642;51.364;6.788;2023-11-21T10:43:53;60.33;;;28.37;;
9214;SDS011;4642;51.364;6.788;2023-11-21T10:46:21;62.23;;;29.73;;
9214;SDS011;4642;51.364;6.788;2023-11-21T10:48:51;69.67;;;30.73;;
9214;SDS011;4642;51.364;6.788;2023-11-21T10:51:20;67.97;;;30.07;;
9214;SDS011;4642;51.364;6.788;2023-11-21T10:53:45;70.67;;;30.80;;
9214;SDS011;4642;51.364;6.788;2023-11-21T10:56:11;65.23;;;28.87;;
9214;SDS011;4642;51.364;6.788;2023-11-21T10:58:42;70.57;;;31.13;;
9214;SDS011;4642;51.364;6.788;2023-11-21T11:01:08;61.90;;;31.37;;
9214;SDS011;4642;51.364;6.788;2023-11-21T11:03:37;69.17;;;32.07;;
9214;SDS011;4642;51.364;6.788;2023-11-21T11:06:04;80.67;;;34.87;;
9214;SDS011;4642;51.364;6.788;2023-11-21T11:08:36;69.70;;;33.20;;
9214;SDS011;4642;51.364;6.788;2023-11-21T11:11:02;78.27;;;36.23;;
9214;SDS011;4642;51.364;6.788;2023-11-21T11:13:30;83.70;;;36.23;;
9214;SDS011;4642;51.364;6.788;2023-11-21T11:15:57;85.93;;;36.87;;
9214;SDS011;4642;51.364;6.788;2023-11-21T11:18:25;91.40;;;38.07;;
9214;SDS011;4642;51.364;6.788;2023-11-21T11:20:51;82.60;;;37.37;;
9214;SDS011;4642;51.364;6.788;2023-11-21T11:23:27;76.03;;;35.13;;
9214;SDS011;4642;51.364;6.788;2023-11-21T11:28:47;89.47;;;36.30;;
9214;SDS011;4642;51.364;6.788;2023-11-21T11:31:27;89.93;;;35.60;;
9214;SDS011;4642;51.364;6.788;2023-11-21T11:34:21;78.40;;;35.60;;
9214;SDS011;4642;51.364;6.788;2023-11-21T11:36:55;84.50;;;36.47;;
9214;SDS011;4642;51.364;6.788;2023-11-21T11:39:40;97.20;;;37.77;;
9214;SDS011;4642;51.364;6.788;2023-11-21T11:42:08;105.33;;;38.83;;
9214;SDS011;4642;51.364;6.788;2023-11-21T11:47:14;93.23;;;39.63;;
9214;SDS011;4642;51.364;6.788;2023-11-21T11:50:14;104.53;;;42.37;;
9214;SDS011;4642;51.364;6.788;2023-11-21T11:52:44;94.17;;;40.40;;
9214;SDS011;4642;51.364;6.788;2023-11-21T11:55:11;94.83;;;39.70;;
9214;SDS011;4642;51.364;6.788;2023-11-21T11:57:44;107.00;;;41.37;;
9214;SDS011;4642;51.364;6.788;2023-11-21T12:00:20;96.13;;;39.37;;
9214;SDS011;4642;51.364;6.788;2023-11-21T12:02:57;99.90;;;41.00;;
9214;SDS011;4642;51.364;6.788;2023-11-21T12:05:27;101.37;;;40.63;;
9214;SDS011;4642;51.364;6.788;2023-11-21T12:07:53;92.43;;;39.37;;
9214;SDS011;4642;51.364;6.788;2023-11-21T12:10:22;94.73;;;41.20;;
9214;SDS011;4642;51.364;6.788;2023-11-21T12:15:26;93.77;;;41.80;;
9214;SDS011;4642;51.364;6.788;2023-11-21T12:17:54;103.90;;;45.27;;
9214;SDS011;4642;51.364;6.788;2023-11-21T12:20:20;100.57;;;42.13;;
9214;SDS011;4642;51.364;6.788;2023-11-21T12:22:48;79.43;;;40.13;;
9214;SDS011;4642;51.364;6.788;2023-11-21T12:25:18;85.43;;;42.07;;
9214;SDS011;4642;51.364;6.788;2023-11-21T12:27:44;97.30;;;45.47;;
9214;SDS011;4642;51.364;6.788;2023-11-21T12:30:14;85.70;;;42.57;;
9214;SDS011;4642;51.364;6.788;2023-11-21T12:32:40;88.00;;;43.30;;
9214;SDS011;4642;51.364;6.788;2023-11-21T12:35:08;94.33;;;42.93;;
9214;SDS011;4642;51.364;6.788;2023-11-21T12:37:35;93.53;;;45.40;;
9214;SDS011;4642;51.364;6.788;2023-11-21T12:40:03;91.70;;;45.13;;
9214;SDS011;4642;51.364;6.788;2023-11-21T12:42:31;91.40;;;42.23;;
9214;SDS011;4642;51.364;6.788;2023-11-21T12:47:43;85.07;;;42.33;;
9214;SDS011;4642;51.364;6.788;2023-11-21T12:50:09;81.17;;;42.53;;
9214;SDS011;4642;51.364;6.788;2023-11-21T12:52:42;86.97;;;43.07;;
9214;SDS011;4642;51.364;6.788;2023-11-21T12:55:13;86.30;;;42.10;;
9214;SDS011;4642;51.364;6.788;2023-11-21T12:57:44;80.70;;;40.07;;
9214;SDS011;4642;51.364;6.788;2023-11-21T13:00:10;80.60;;;41.67;;
9214;SDS011;4642;51.364;6.788;2023-11-21T13:02:52;73.37;;;41.33;;
9214;SDS011;4642;51.364;6.788;2023-11-21T13:05:33;77.13;;;41.47;;
9214;SDS011;4642;51.364;6.788;2023-11-21T13:08:00;76.50;;;39.47;;
9214;SDS011;4642;51.364;6.788;2023-11-21T13:10:33;81.37;;;40.93;;
9214;SDS011;4642;51.364;6.788;2023-11-21T13:13:01;87.17;;;44.83;;
9214;SDS011;4642;51.364;6.788;2023-11-21T13:15:30;90.20;;;45.73;;
9214;SDS011;4642;51.364;6.788;2023-11-21T13:17:58;89.17;;;45.70;;
9214;SDS011;4642;51.364;6.788;2023-11-21T13:20:27;97.50;;;45.10;;
9214;SDS011;4642;51.364;6.788;2023-11-21T13:22:54;89.77;;;45.77;;
9214;SDS011;4642;51.364;6.788;2023-11-21T13:25:24;86.07;;;41.63;;
9214;SDS011;4642;51.364;6.788;2023-11-21T13:27:52;79.30;;;42.00;;
9214;SDS011;4642;51.364;6.788;2023-11-21T13:30:18;62.53;;;32.93;;
9214;SDS011;4642;51.364;6.788;2023-11-21T13:32:51;37.00;;;20.60;;
9214;SDS011;4642;51.364;6.788;2023-11-21T13:35:17;36.70;;;18.43;;
9214;SDS011;4642;51.364;6.788;2023-11-21T13:37:49;34.47;;;16.70;;
9214;SDS011;4642;51.364;6.788;2023-11-21T13:40:16;29.43;;;15.13;;
9214;SDS011;4642;51.364;6.788;2023-11-21T13:42:47;24.10;;;14.47;;
9214;SDS011;4642;51.364;6.788;2023-11-21T13:45:14;21.13;;;13.10;;
9214;SDS011;4642;51.364;6.788;2023-11-21T13:47:39;19.10;;;12.40;;
9214;SDS011;4642;51.364;6.788;2023-11-21T13:50:05;19.53;;;12.63;;
9214;SDS011;4642;51.364;6.788;2023-11-21T13:52:42;18.43;;;11.93;;
9214;SDS011;4642;51.364;6.788;2023-11-21T13:55:10;16.50;;;11.27;;
9214;SDS011;4642;51.364;6.788;2023-11-21T13:57:40;17.70;;;11.37;;
9214;SDS011;4642;51.364;6.788;2023-11-21T14:00:11;18.30;;;10.30;;
9214;SDS011;4642;51.364;6.788;2023-11-21T14:02:57;18.40;;;10.57;;
9214;SDS011;4642;51.364;6.788;2023-11-21T14:05:25;16.20;;;10.13;;
9214;SDS011;4642;51.364;6.788;2023-11-21T14:07:55;16.80;;;10.83;;
9214;SDS011;4642;51.364;6.788;2023-11-21T14:10:25;19.63;;;11.43;;
9214;SDS011;4642;51.364;6.788;2023-11-21T14:12:51;16.70;;;11.13;;
9214;SDS011;4642;51.364;6.788;2023-11-21T14:15:17;17.93;;;11.87;;
9214;SDS011;4642;51.364;6.788;2023-11-21T14:17:44;20.33;;;12.50;;
9214;SDS011;4642;51.364;6.788;2023-11-21T14:20:10;21.03;;;13.43;;
9214;SDS011;4642;51.364;6.788;2023-11-21T14:22:42;15.73;;;11.37;;
9214;SDS011;4642;51.364;6.788;2023-11-21T14:25:08;18.67;;;13.03;;
9214;SDS011;4642;51.364;6.788;2023-11-21T14:27:36;19.20;;;13.97;;
9214;SDS011;4642;51.364;6.788;2023-11-21T14:30:02;23.27;;;13.80;;
9214;SDS011;4642;51.364;6.788;2023-11-21T14:32:28;23.00;;;13.87;;
9214;SDS011;4642;51.364;6.788;2023-11-21T14:34:53;18.57;;;13.03;;
9214;SDS011;4642;51.364;6.788;2023-11-21T14:37:19;20.13;;;13.30;;
9214;SDS011;4642;51.364;6.788;2023-11-21T14:39:44;21.30;;;13.57;;
9214;SDS011;4642;51.364;6.788;2023-11-21T14:42:13;21.87;;;13.53;;
9214;SDS011;4642;51.364;6.788;2023-11-21T14:44:49;19.63;;;12.67;;
9214;SDS011;4642;51.364;6.788;2023-11-21T14:47:14;21.57;;;14.50;;
9214;SDS011;4642;51.364;6.788;2023-11-21T14:49:41;25.87;;;14.90;;
9214;SDS011;4642;51.364;6.788;2023-11-21T14:52:18;21.97;;;14.67;;
9214;SDS011;4642;51.364;6.788;2023-11-21T14:55:07;23.17;;;14.00;;
9214;SDS011;4642;51.364;6.788;2023-11-21T14:57:50;21.53;;;15.60;;
9214;SDS011;4642;51.364;6.788;2023-11-21T15:00:19;22.43;;;14.07;;
9214;SDS011;4642;51.364;6.788;2023-11-21T15:03:00;23.20;;;15.70;;
9214;SDS011;4642;51.364;6.788;2023-11-21T15:05:27;24.73;;;16.27;;